Forside
METAR-TAF:

METAR-TAF

Lufthavne :

Olieplatform

Goeree Le, Holland

Breddekreds: 51-55-33N, længdekreds: 3-40-12E, højde: 19 m

Aktuelle vejr

Denne rapport blev lavet for 43 minutter siden, kl. 16:55 UTC
Vind 26 kt fra nordvest
Temperatur 8°C
Fugtighed 81%
Tryk 1016 hPa
Sigt 10 km eller mere

METAR: EHSC 231655Z AUTO 32026KT 9999 ///////// 08/05 Q1016 W08/H24

Tid: 18:38 (17:38 UTC)


TAF: fraværende

Vejrobservationer og prognoser fra mere end 4000 lufthavne (METAR og TAF).

De gule og røde prikker repræsenterer de meteorologiske stationer.

Flyt musen over at se navnet på stationen.

Så klik over at se vejr observationer og prognoser.

At skifte det kort: Klik på de grønne knapper med et sort kors for at zoome ind; på den grønne knap med en bindestreg for at zoome ud; eller på de grønne pile for tilstødende kort.


METAR-TAF: